createdAt,value
2022-09-25T00:00:50.573Z,12.30
2022-09-25T00:03:18.601Z,12.30
2022-09-25T00:05:47.167Z,12.30
2022-09-25T00:08:15.838Z,12.30
2022-09-25T00:10:48.064Z,12.30
2022-09-25T00:13:16.683Z,12.30
2022-09-25T00:15:55.182Z,12.30
2022-09-25T00:18:42.068Z,12.30
2022-09-25T00:21:14.578Z,12.20
2022-09-25T00:23:44.410Z,12.30
2022-09-25T00:26:13.119Z,12.20
2022-09-25T00:28:40.804Z,12.30
2022-09-25T00:31:09.147Z,12.20
2022-09-25T00:33:37.081Z,12.20
2022-09-25T00:36:06.909Z,12.20
2022-09-25T00:38:35.339Z,12.30
2022-09-25T00:41:03.041Z,12.20
2022-09-25T00:43:51.146Z,12.20
2022-09-25T00:46:22.653Z,12.20
2022-09-25T00:48:55.095Z,12.20
2022-09-25T00:51:29.541Z,12.20
2022-09-25T00:54:01.473Z,12.10
2022-09-25T00:56:33.395Z,12.10
2022-09-25T00:59:00.292Z,12.10
2022-09-25T01:01:27.373Z,12.10
2022-09-25T01:03:56.009Z,12.10
2022-09-25T01:06:25.378Z,12.00
2022-09-25T01:08:52.151Z,12.10
2022-09-25T01:11:18.818Z,12.00
2022-09-25T01:13:45.812Z,12.00
2022-09-25T01:16:37.564Z,12.00
2022-09-25T01:19:04.159Z,12.00
2022-09-25T01:21:54.422Z,12.00
2022-09-25T01:24:41.144Z,12.00
2022-09-25T01:27:46.347Z,11.90
2022-09-25T01:30:15.702Z,11.90
2022-09-25T01:32:55.674Z,11.90
2022-09-25T01:35:49.941Z,11.90
2022-09-25T01:38:23.794Z,11.90
2022-09-25T01:40:58.742Z,11.90
2022-09-25T01:43:34.882Z,11.90
2022-09-25T01:46:09.961Z,11.80
2022-09-25T01:48:39.365Z,11.80
2022-09-25T01:51:14.004Z,11.80
2022-09-25T01:53:48.375Z,11.80
2022-09-25T01:56:23.033Z,11.80
2022-09-25T01:58:57.473Z,11.80
2022-09-25T02:01:32.362Z,11.80
2022-09-25T02:04:12.565Z,11.80
2022-09-25T02:06:42.200Z,11.70
2022-09-25T02:09:30.741Z,11.70
2022-09-25T02:12:02.253Z,11.70
2022-09-25T02:14:36.906Z,11.70
2022-09-25T02:17:07.832Z,11.70
2022-09-25T02:20:03.970Z,11.70
2022-09-25T02:22:35.926Z,11.70
2022-09-25T02:25:12.862Z,11.70
2022-09-25T02:27:39.505Z,11.70
2022-09-25T02:30:06.654Z,11.70
2022-09-25T02:32:34.069Z,11.70
2022-09-25T02:35:01.176Z,11.70
2022-09-25T02:37:28.375Z,11.70
2022-09-25T02:39:59.204Z,11.70
2022-09-25T02:42:28.812Z,11.70
2022-09-25T02:45:36.423Z,11.70
2022-09-25T02:48:10.897Z,11.70
2022-09-25T02:51:06.181Z,11.70
2022-09-25T02:53:46.196Z,11.70
2022-09-25T02:56:25.850Z,11.70
2022-09-25T02:58:58.110Z,11.70
2022-09-25T03:01:28.988Z,11.70
2022-09-25T03:03:59.022Z,11.70
2022-09-25T03:06:26.554Z,11.70
2022-09-25T03:08:59.408Z,11.70
2022-09-25T03:11:27.446Z,11.70
2022-09-25T03:14:01.801Z,11.60
2022-09-25T03:16:34.662Z,11.70
2022-09-25T03:19:02.605Z,11.60
2022-09-25T03:21:29.198Z,11.60
2022-09-25T03:23:58.586Z,11.60
2022-09-25T03:26:27.337Z,11.60
2022-09-25T03:28:54.453Z,11.60
2022-09-25T03:31:21.796Z,11.60
2022-09-25T03:33:49.028Z,11.60
2022-09-25T03:36:16.992Z,11.60
2022-09-25T03:38:45.796Z,11.60
2022-09-25T03:41:15.590Z,11.60
2022-09-25T03:43:43.480Z,11.60
2022-09-25T03:46:12.812Z,11.60
2022-09-25T03:48:40.368Z,11.60
2022-09-25T03:51:07.570Z,11.60
2022-09-25T03:53:34.369Z,11.60
2022-09-25T03:56:02.509Z,11.60
2022-09-25T03:58:29.586Z,11.60
2022-09-25T04:00:57.310Z,11.60
2022-09-25T04:03:27.949Z,11.60
2022-09-25T04:05:59.938Z,11.60
2022-09-25T04:08:27.814Z,11.60
2022-09-25T04:10:56.312Z,11.60
2022-09-25T04:13:24.374Z,11.60
2022-09-25T04:15:51.780Z,11.60
2022-09-25T04:18:18.910Z,11.60
2022-09-25T04:20:45.512Z,11.60
2022-09-25T04:23:12.105Z,11.50
2022-09-25T04:25:38.726Z,11.50
2022-09-25T04:28:07.205Z,11.50
2022-09-25T04:30:34.283Z,11.50
2022-09-25T04:33:20.361Z,11.50
2022-09-25T04:35:46.981Z,11.40
2022-09-25T04:38:13.738Z,11.40
2022-09-25T04:40:40.541Z,11.40
2022-09-25T04:43:07.708Z,11.30
2022-09-25T04:45:36.915Z,11.30
2022-09-25T04:48:04.874Z,11.30
2022-09-25T04:50:31.931Z,11.20
2022-09-25T04:52:59.810Z,11.20
2022-09-25T04:55:27.574Z,11.20
2022-09-25T04:57:59.062Z,11.20
2022-09-25T05:00:28.431Z,11.20
2022-09-25T05:02:55.245Z,11.20
2022-09-25T05:05:22.439Z,11.10
2022-09-25T05:07:57.076Z,11.10
2022-09-25T05:10:27.345Z,11.10
2022-09-25T05:12:58.230Z,11.10
2022-09-25T05:15:26.115Z,11.10
2022-09-25T05:18:04.093Z,11.00
2022-09-25T05:20:30.731Z,11.00
2022-09-25T05:22:58.583Z,11.00
2022-09-25T05:25:26.893Z,11.00
2022-09-25T05:27:55.909Z,11.00
2022-09-25T05:30:23.216Z,11.00
2022-09-25T05:32:50.862Z,11.00
2022-09-25T05:35:19.668Z,11.00
2022-09-25T05:37:46.679Z,11.00
2022-09-25T05:40:15.652Z,11.00
2022-09-25T05:42:44.132Z,11.10
2022-09-25T05:45:12.048Z,11.10
2022-09-25T05:47:39.501Z,11.20
2022-09-25T05:50:07.798Z,11.20
2022-09-25T05:52:34.608Z,11.30
2022-09-25T05:55:03.292Z,11.30
2022-09-25T05:57:34.210Z,11.30
2022-09-25T06:00:01.782Z,11.40
2022-09-25T06:02:28.628Z,11.40
2022-09-25T06:04:55.287Z,11.50
2022-09-25T06:07:21.869Z,11.50
2022-09-25T06:09:48.511Z,11.60
2022-09-25T06:12:15.097Z,11.60
2022-09-25T06:14:42.080Z,11.70
2022-09-25T06:17:08.867Z,11.70
2022-09-25T06:19:35.526Z,11.80
2022-09-25T06:22:02.161Z,11.80
2022-09-25T06:24:28.765Z,11.90
2022-09-25T06:26:55.666Z,11.90
2022-09-25T06:29:22.267Z,12.00
2022-09-25T06:31:48.873Z,12.10
2022-09-25T06:34:15.456Z,12.10
2022-09-25T06:36:42.491Z,12.20
2022-09-25T06:39:09.133Z,12.20
2022-09-25T06:41:36.814Z,12.30
2022-09-25T06:44:03.525Z,12.40
2022-09-25T06:46:30.215Z,12.50
2022-09-25T06:48:59.974Z,12.50
2022-09-25T06:51:31.352Z,12.50
2022-09-25T06:53:58.845Z,12.70
2022-09-25T06:56:25.845Z,12.70
2022-09-25T06:58:52.590Z,12.70
2022-09-25T07:01:19.337Z,12.80
2022-09-25T07:03:46.110Z,12.90
2022-09-25T07:06:16.450Z,12.90
2022-09-25T07:08:44.098Z,13.00
2022-09-25T07:11:18.250Z,13.00
2022-09-25T07:13:45.520Z,13.10
2022-09-25T07:16:17.667Z,13.10
2022-09-25T07:18:45.134Z,13.10
2022-09-25T07:21:14.972Z,13.20
2022-09-25T07:23:42.221Z,13.20
2022-09-25T07:26:15.284Z,13.30
2022-09-25T07:28:43.385Z,13.40
2022-09-25T07:31:10.827Z,13.50
2022-09-25T07:33:37.503Z,13.60
2022-09-25T07:36:04.310Z,13.50
2022-09-25T07:38:30.949Z,13.40
2022-09-25T07:40:58.061Z,13.50
2022-09-25T07:43:24.741Z,13.60
2022-09-25T07:45:54.564Z,13.60
2022-09-25T07:48:21.994Z,13.70
2022-09-25T07:50:50.182Z,13.70
2022-09-25T07:53:19.922Z,13.80
2022-09-25T07:55:47.171Z,13.80
2022-09-25T07:58:15.311Z,13.80
2022-09-25T08:00:41.931Z,13.70
2022-09-25T08:03:11.333Z,13.60
2022-09-25T08:05:38.031Z,13.50
2022-09-25T08:08:04.681Z,13.60
2022-09-25T08:10:32.164Z,13.60
2022-09-25T08:12:59.038Z,13.80
2022-09-25T08:15:25.856Z,13.80
2022-09-25T08:17:53.079Z,13.80
2022-09-25T08:20:20.192Z,13.90
2022-09-25T08:22:47.594Z,13.80
2022-09-25T08:25:14.631Z,13.70
2022-09-25T08:27:41.529Z,13.60
2022-09-25T08:30:10.414Z,13.70
2022-09-25T08:32:37.434Z,13.80
2022-09-25T08:35:05.021Z,13.90
2022-09-25T08:37:32.166Z,14.00
2022-09-25T08:39:59.866Z,14.00
2022-09-25T08:42:36.823Z,14.10
2022-09-25T08:45:29.022Z,14.20
2022-09-25T08:48:16.046Z,14.20
2022-09-25T08:50:43.010Z,14.30
2022-09-25T08:53:25.148Z,14.50
2022-09-25T08:56:16.234Z,14.50
2022-09-25T08:59:03.095Z,14.60
2022-09-25T09:01:47.016Z,14.70
2022-09-25T09:04:19.450Z,14.80
2022-09-25T09:07:08.169Z,14.90
2022-09-25T09:09:52.807Z,15.00
2022-09-25T09:12:26.524Z,15.10
2022-09-25T09:15:06.587Z,15.30
2022-09-25T09:17:41.574Z,15.30
2022-09-25T09:20:21.228Z,15.40
2022-09-25T09:22:53.188Z,15.40
2022-09-25T09:25:57.640Z,15.40
2022-09-25T09:28:59.999Z,15.40
2022-09-25T09:31:35.301Z,15.40
2022-09-25T09:34:53.212Z,15.40
2022-09-25T09:37:58.126Z,15.50
2022-09-25T09:40:53.035Z,15.70
2022-09-25T09:43:31.400Z,15.90
2022-09-25T09:46:19.118Z,16.10
2022-09-25T09:49:13.862Z,16.20
2022-09-25T09:52:11.244Z,16.30
2022-09-25T09:54:55.845Z,16.40
2022-09-25T09:57:27.090Z,16.60
2022-09-25T10:00:04.949Z,16.60
2022-09-25T10:02:34.891Z,16.60
2022-09-25T10:05:04.985Z,16.80
2022-09-25T10:07:35.674Z,16.90
2022-09-25T10:10:02.292Z,17.10
2022-09-25T10:12:33.792Z,17.20
2022-09-25T10:15:04.870Z,17.20
2022-09-25T10:17:32.715Z,17.40
2022-09-25T10:20:12.683Z,17.70
2022-09-25T10:22:42.914Z,17.80
2022-09-25T10:25:09.555Z,17.90
2022-09-25T10:27:38.373Z,18.20
2022-09-25T10:30:10.924Z,18.20
2022-09-25T10:32:58.319Z,18.20
2022-09-25T10:35:48.752Z,18.30
2022-09-25T10:38:28.221Z,18.40
2022-09-25T10:41:02.995Z,18.40
2022-09-25T10:43:29.678Z,18.50
2022-09-25T10:46:08.286Z,18.60
2022-09-25T10:48:55.938Z,18.60
2022-09-25T10:51:23.581Z,18.60
2022-09-25T10:54:09.134Z,18.70
2022-09-25T10:56:39.020Z,18.70
2022-09-25T10:59:19.649Z,18.70
2022-09-25T11:01:49.408Z,18.70
2022-09-25T11:04:29.307Z,18.80
2022-09-25T11:07:00.423Z,18.80
2022-09-25T11:09:29.757Z,18.80
2022-09-25T11:12:14.606Z,18.90
2022-09-25T11:14:55.363Z,19.00
2022-09-25T11:17:43.498Z,19.10
2022-09-25T11:20:16.561Z,19.30
2022-09-25T11:23:15.163Z,19.40
2022-09-25T11:25:59.608Z,19.50
2022-09-25T11:28:54.864Z,19.60
2022-09-25T11:31:42.410Z,19.80
2022-09-25T11:34:57.198Z,19.90
2022-09-25T11:37:55.463Z,20.20
2022-09-25T11:40:57.642Z,20.20
2022-09-25T11:43:46.327Z,20.40
2022-09-25T11:46:28.769Z,20.40
2022-09-25T11:49:12.525Z,20.50
2022-09-25T11:52:05.916Z,20.60
2022-09-25T11:54:57.667Z,20.70
2022-09-25T11:57:36.879Z,20.90
2022-09-25T12:00:26.438Z,20.70
2022-09-25T12:03:35.381Z,20.60
2022-09-25T12:06:32.725Z,20.60
2022-09-25T12:09:31.393Z,20.80
2022-09-25T12:12:08.690Z,20.90
2022-09-25T12:15:01.723Z,20.90
2022-09-25T12:17:52.836Z,21.00
2022-09-25T12:21:01.790Z,21.20
2022-09-25T12:23:32.889Z,21.10
2022-09-25T12:26:32.893Z,21.00
2022-09-25T12:29:36.790Z,20.90
2022-09-25T12:32:40.760Z,20.70
2022-09-25T12:35:26.858Z,20.40
2022-09-25T12:38:11.841Z,20.40
2022-09-25T12:40:57.196Z,20.20
2022-09-25T12:43:27.422Z,20.20
2022-09-25T12:46:09.735Z,20.20
2022-09-25T12:48:57.979Z,20.20
2022-09-25T12:51:34.983Z,20.10
2022-09-25T12:54:12.954Z,19.90
2022-09-25T12:56:51.240Z,19.70
2022-09-25T12:59:24.940Z,19.70
2022-09-25T13:02:09.658Z,19.60
2022-09-25T13:05:07.538Z,19.50
2022-09-25T13:07:50.589Z,19.50
2022-09-25T13:10:32.162Z,19.40
2022-09-25T13:13:02.914Z,19.40
2022-09-25T13:15:33.337Z,19.40
2022-09-25T13:18:00.182Z,19.40
2022-09-25T13:20:26.750Z,19.40
2022-09-25T13:23:13.660Z,19.50
2022-09-25T13:25:53.636Z,19.70
2022-09-25T13:28:26.386Z,20.00
2022-09-25T13:31:21.271Z,20.40
2022-09-25T13:33:52.541Z,20.70
2022-09-25T13:36:23.326Z,21.10
2022-09-25T13:39:18.369Z,21.70
2022-09-25T13:42:00.411Z,21.80
2022-09-25T13:44:42.542Z,21.90
2022-09-25T13:47:24.090Z,21.80
2022-09-25T13:50:09.218Z,21.80
2022-09-25T13:52:39.490Z,21.90
2022-09-25T13:55:22.148Z,21.70
2022-09-25T13:57:55.776Z,21.70
2022-09-25T14:00:23.306Z,21.80
2022-09-25T14:02:50.556Z,21.90
2022-09-25T14:05:21.559Z,21.90
2022-09-25T14:07:52.589Z,21.80
2022-09-25T14:10:19.461Z,21.80
2022-09-25T14:12:48.513Z,21.60
2022-09-25T14:15:27.768Z,21.50
2022-09-25T14:17:57.361Z,21.40
2022-09-25T14:20:35.908Z,21.40
2022-09-25T14:23:12.868Z,21.50
2022-09-25T14:25:44.239Z,21.50
2022-09-25T14:28:26.926Z,21.60
2022-09-25T14:31:23.080Z,21.70
2022-09-25T14:34:29.744Z,21.60
2022-09-25T14:37:21.532Z,21.50
2022-09-25T14:40:23.417Z,21.30
2022-09-25T14:43:17.054Z,21.10
2022-09-25T14:46:00.405Z,21.20
2022-09-25T14:48:56.233Z,21.40
2022-09-25T14:51:25.575Z,21.60
2022-09-25T14:53:59.383Z,22.00
2022-09-25T14:56:27.808Z,22.30
2022-09-25T14:58:58.925Z,22.70
2022-09-25T15:01:29.374Z,22.90
2022-09-25T15:04:05.833Z,23.20
2022-09-25T15:06:39.873Z,23.30
2022-09-25T15:09:38.602Z,23.30
2022-09-25T15:12:20.844Z,23.40
2022-09-25T15:14:58.482Z,23.30
2022-09-25T15:17:27.741Z,22.90
2022-09-25T15:19:57.511Z,22.90
2022-09-25T15:22:29.898Z,22.90
2022-09-25T15:25:02.045Z,22.70
2022-09-25T15:27:29.897Z,22.50
2022-09-25T15:29:58.407Z,22.10
2022-09-25T15:32:29.707Z,21.80
2022-09-25T15:35:17.405Z,21.50
2022-09-25T15:37:45.458Z,21.20
2022-09-25T15:40:25.784Z,20.80
2022-09-25T15:42:52.865Z,20.60
2022-09-25T15:45:37.064Z,20.40
2022-09-25T15:48:26.421Z,20.20
2022-09-25T15:50:54.292Z,19.90
2022-09-25T15:53:36.677Z,19.70
2022-09-25T15:56:15.154Z,19.60
2022-09-25T15:58:46.798Z,19.40
2022-09-25T16:01:36.639Z,19.30
2022-09-25T16:04:26.043Z,19.20
2022-09-25T16:06:53.468Z,19.10
2022-09-25T16:09:21.790Z,19.10
2022-09-25T16:11:49.107Z,19.00
2022-09-25T16:14:31.467Z,18.90
2022-09-25T16:17:00.130Z,18.90
2022-09-25T16:19:30.142Z,18.90
2022-09-25T16:22:00.139Z,18.80
2022-09-25T16:24:31.699Z,18.80
2022-09-25T16:27:02.757Z,18.70
2022-09-25T16:29:36.466Z,18.70
2022-09-25T16:32:13.581Z,18.50
2022-09-25T16:34:41.564Z,18.50
2022-09-25T16:37:21.313Z,18.40
2022-09-25T16:40:22.813Z,18.30
2022-09-25T16:42:50.602Z,18.10
2022-09-25T16:45:19.222Z,18.10
2022-09-25T16:47:49.429Z,18.00
2022-09-25T16:50:17.943Z,17.90
2022-09-25T16:52:46.013Z,17.80
2022-09-25T16:55:25.671Z,17.70
2022-09-25T16:57:54.051Z,17.70
2022-09-25T17:00:26.833Z,17.60
2022-09-25T17:02:54.528Z,17.50
2022-09-25T17:05:26.415Z,17.40
2022-09-25T17:08:00.030Z,17.30
2022-09-25T17:10:32.240Z,17.20
2022-09-25T17:13:01.521Z,17.10
2022-09-25T17:15:32.990Z,17.10
2022-09-25T17:18:02.082Z,17.00
2022-09-25T17:20:34.117Z,16.90
2022-09-25T17:23:00.894Z,16.80
2022-09-25T17:25:36.644Z,16.70
2022-09-25T17:28:05.589Z,16.60
2022-09-25T17:30:32.903Z,16.40
2022-09-25T17:35:58.987Z,16.30
2022-09-25T17:38:27.830Z,16.10
2022-09-25T17:40:57.738Z,16.00
2022-09-25T17:43:26.170Z,15.90
2022-09-25T17:45:55.480Z,15.80
2022-09-25T17:48:27.477Z,15.70
2022-09-25T17:50:59.628Z,15.60
2022-09-25T17:53:28.920Z,15.60
2022-09-25T17:55:56.838Z,15.50
2022-09-25T17:58:24.626Z,15.40
2022-09-25T18:00:52.804Z,15.40
2022-09-25T18:03:20.769Z,15.40
2022-09-25T18:05:47.878Z,15.30
2022-09-25T18:08:15.004Z,15.30
2022-09-25T18:10:41.732Z,15.30
2022-09-25T18:13:13.454Z,15.20
2022-09-25T18:15:53.070Z,15.20
2022-09-25T18:18:20.144Z,15.20
2022-09-25T18:21:09.160Z,15.20
2022-09-25T18:23:38.392Z,15.20
2022-09-25T18:26:08.725Z,15.10
2022-09-25T18:28:35.321Z,15.10
2022-09-25T18:31:02.062Z,15.10
2022-09-25T18:33:29.048Z,15.10
2022-09-25T18:35:55.698Z,15.10
2022-09-25T18:38:22.317Z,15.20
2022-09-25T18:40:49.009Z,15.20
2022-09-25T18:43:15.644Z,15.20
2022-09-25T18:45:50.966Z,15.20
2022-09-25T18:48:17.620Z,15.20
2022-09-25T18:50:48.637Z,15.30
2022-09-25T18:53:16.326Z,15.30
2022-09-25T18:55:43.676Z,15.30
2022-09-25T18:58:11.277Z,15.20
2022-09-25T19:00:38.699Z,15.20
2022-09-25T19:03:05.915Z,15.20
2022-09-25T19:05:33.559Z,15.20
2022-09-25T19:08:01.206Z,15.20
2022-09-25T19:10:30.330Z,15.20
2022-09-25T19:12:56.975Z,15.20
2022-09-25T19:15:24.844Z,15.20
2022-09-25T19:17:51.453Z,15.20
2022-09-25T19:20:18.108Z,15.10
2022-09-25T19:22:45.522Z,15.10
2022-09-25T19:25:12.318Z,15.10
2022-09-25T19:27:39.186Z,15.10
2022-09-25T19:30:06.291Z,15.10
2022-09-25T19:32:32.893Z,15.10
2022-09-25T19:34:59.924Z,15.10
2022-09-25T19:37:29.955Z,15.10
2022-09-25T19:40:15.310Z,15.10
2022-09-25T19:42:41.962Z,15.10
2022-09-25T19:45:09.837Z,15.10
2022-09-25T19:47:36.491Z,15.00
2022-09-25T19:50:06.912Z,15.00
2022-09-25T19:52:33.572Z,15.10
2022-09-25T19:55:00.491Z,15.00
2022-09-25T19:57:27.658Z,15.00
2022-09-25T19:59:54.602Z,15.00
2022-09-25T20:02:21.432Z,15.10
2022-09-25T20:04:48.680Z,15.00
2022-09-25T20:07:16.006Z,15.00
2022-09-25T20:09:43.642Z,14.90
2022-09-25T20:12:10.841Z,14.90
2022-09-25T20:14:37.733Z,14.80
2022-09-25T20:17:09.554Z,14.70
2022-09-25T20:19:36.650Z,14.70
2022-09-25T20:22:03.338Z,14.60
2022-09-25T20:24:30.025Z,14.60
2022-09-25T20:26:56.675Z,14.60
2022-09-25T20:29:23.266Z,14.60
2022-09-25T20:31:50.070Z,14.60
2022-09-25T20:34:18.990Z,14.50
2022-09-25T20:36:46.470Z,14.50
2022-09-25T20:39:18.193Z,14.50
2022-09-25T20:41:47.569Z,14.40
2022-09-25T20:44:14.352Z,14.40
2022-09-25T20:46:42.033Z,14.40
2022-09-25T20:49:10.815Z,14.30
2022-09-25T20:51:37.599Z,14.30
2022-09-25T20:54:06.954Z,14.30
2022-09-25T20:56:34.890Z,14.30
2022-09-25T20:59:03.887Z,14.30
2022-09-25T21:01:34.988Z,14.20
2022-09-25T21:04:04.259Z,14.20
2022-09-25T21:06:33.156Z,14.20
2022-09-25T21:09:01.738Z,14.20
2022-09-25T21:11:30.164Z,14.10
2022-09-25T21:13:58.388Z,14.10
2022-09-25T21:16:27.711Z,14.00
2022-09-25T21:18:56.869Z,14.00
2022-09-25T21:21:24.963Z,14.00
2022-09-25T21:23:54.270Z,13.90
2022-09-25T21:26:22.858Z,13.90
2022-09-25T21:28:53.703Z,13.90
2022-09-25T21:31:26.304Z,13.90
2022-09-25T21:33:54.645Z,13.90
2022-09-25T21:36:21.919Z,13.80
2022-09-25T21:38:49.409Z,13.80
2022-09-25T21:41:21.858Z,13.80
2022-09-25T21:43:48.837Z,13.70
2022-09-25T21:46:18.207Z,13.70
2022-09-25T21:48:51.433Z,13.70
2022-09-25T21:51:19.521Z,13.70
2022-09-25T21:53:46.118Z,13.70
2022-09-25T21:56:14.993Z,13.60
2022-09-25T21:58:42.041Z,13.60
2022-09-25T22:01:12.792Z,13.60
2022-09-25T22:03:41.960Z,13.60
2022-09-25T22:06:13.409Z,13.60
2022-09-25T22:08:42.732Z,13.60
2022-09-25T22:11:11.050Z,13.60
2022-09-25T22:13:39.846Z,13.60
2022-09-25T22:16:09.697Z,13.50
2022-09-25T22:18:48.609Z,13.60
2022-09-25T22:21:19.616Z,13.60
2022-09-25T22:23:46.532Z,13.50
2022-09-25T22:26:14.933Z,13.50
2022-09-25T22:28:42.125Z,13.50
2022-09-25T22:31:18.494Z,13.50
2022-09-25T22:33:45.878Z,13.50
2022-09-25T22:36:13.014Z,13.40
2022-09-25T22:38:40.481Z,13.50
2022-09-25T22:41:10.693Z,13.40
2022-09-25T22:43:37.722Z,13.40
2022-09-25T22:46:05.599Z,13.40
2022-09-25T22:48:32.989Z,13.40
2022-09-25T22:51:26.410Z,13.40
2022-09-25T22:53:54.220Z,13.40
2022-09-25T22:56:26.449Z,13.40
2022-09-25T22:58:56.087Z,13.40
2022-09-25T23:01:31.775Z,13.40
2022-09-25T23:04:00.385Z,13.40
2022-09-25T23:06:29.203Z,13.40
2022-09-25T23:08:58.681Z,13.40
2022-09-25T23:11:25.823Z,13.40
2022-09-25T23:14:02.879Z,13.50
2022-09-25T23:16:31.823Z,13.40
2022-09-25T23:18:59.822Z,13.40
2022-09-25T23:21:28.383Z,13.40
2022-09-25T23:24:01.971Z,13.40
2022-09-25T23:26:29.258Z,13.30
2022-09-25T23:28:58.305Z,13.30
2022-09-25T23:31:25.730Z,13.20
2022-09-25T23:33:52.441Z,13.20
2022-09-25T23:36:21.005Z,13.20
2022-09-25T23:38:49.228Z,13.20
2022-09-25T23:41:24.463Z,13.20
2022-09-25T23:43:52.850Z,13.20
2022-09-25T23:46:22.296Z,13.10
2022-09-25T23:48:49.249Z,13.10
2022-09-25T23:51:17.372Z,13.10
2022-09-25T23:53:44.421Z,13.10
2022-09-25T23:56:14.123Z,13.10
2022-09-25T23:58:41.328Z,13.00
